KDAW

Skyhaven Airport

Rochester, New Hampshire, USA
METAR KDAW 191051Z AUTO 03004KT 10SM OVC019 15/14 A2990 RMK AO2 SLP120 T01500139
Observed Flight Rules
Sep-19 @ 10:51 UTC (11 minutes ago) Marginal Visual Flight Rules
Wind Visibility Clouds
30° at 4 knots 10 miles
  • Overcast at 1,900' AGL
Temperatures Readings
Current 15°C / 59°F
Dewpoint 14°C / 57°F
Humidity 94%
Altimeter 29.9" Hg
Pressure 1012 hPa
Elevation 100
METAR KDAW 191051Z AUTO 03004KT 10SM OVC019 15/14 A2990 RMK AO2 SLP120 T01500139
Observed Flight Rules
Sep-19 @ 10:51 UTC
(11 minutes ago)
MVFR
Wind Visibility
30° at 4 knots 10 miles
Clouds
  • Overcast at 1,900' AGL
Temperature Dewpoint
15°C / 59°F 14°C / 57°F
Humidity Altimeter Pressure
94% 29.9" Hg 1012 hPa